sensor_id;sensor_type;location;lat;lon;timestamp;P1;durP1;ratioP1;P2;durP2;ratioP2
3036;SDS011;1528;52.550;13.408;2023-07-28T00:01:05;3.97;;;3.50;;
3036;SDS011;1528;52.550;13.408;2023-07-28T00:03:50;3.27;;;2.97;;
3036;SDS011;1528;52.550;13.408;2023-07-28T00:06:36;2.83;;;2.63;;
3036;SDS011;1528;52.550;13.408;2023-07-28T00:09:21;4.07;;;3.77;;
3036;SDS011;1528;52.550;13.408;2023-07-28T00:12:08;3.30;;;3.10;;
3036;SDS011;1528;52.550;13.408;2023-07-28T00:14:53;3.60;;;3.40;;
3036;SDS011;1528;52.550;13.408;2023-07-28T00:17:40;3.53;;;3.33;;
3036;SDS011;1528;52.550;13.408;2023-07-28T00:20:26;3.30;;;3.00;;
3036;SDS011;1528;52.550;13.408;2023-07-28T00:23:12;3.37;;;3.17;;
3036;SDS011;1528;52.550;13.408;2023-07-28T00:25:58;3.60;;;3.30;;
3036;SDS011;1528;52.550;13.408;2023-07-28T00:28:43;4.27;;;4.00;;
3036;SDS011;1528;52.550;13.408;2023-07-28T00:31:29;4.00;;;3.80;;
3036;SDS011;1528;52.550;13.408;2023-07-28T00:34:16;3.60;;;3.40;;
3036;SDS011;1528;52.550;13.408;2023-07-28T00:37:01;3.80;;;3.60;;
3036;SDS011;1528;52.550;13.408;2023-07-28T00:39:47;4.10;;;3.80;;
3036;SDS011;1528;52.550;13.408;2023-07-28T00:42:32;5.07;;;4.77;;
3036;SDS011;1528;52.550;13.408;2023-07-28T00:45:18;6.17;;;5.70;;
3036;SDS011;1528;52.550;13.408;2023-07-28T00:48:04;4.73;;;4.40;;
3036;SDS011;1528;52.550;13.408;2023-07-28T00:50:55;4.80;;;4.50;;
3036;SDS011;1528;52.550;13.408;2023-07-28T00:53:41;4.90;;;4.63;;
3036;SDS011;1528;52.550;13.408;2023-07-28T00:56:27;6.07;;;5.60;;
3036;SDS011;1528;52.550;13.408;2023-07-28T00:59:12;5.27;;;4.70;;
3036;SDS011;1528;52.550;13.408;2023-07-28T01:01:58;5.10;;;4.80;;
3036;SDS011;1528;52.550;13.408;2023-07-28T01:04:44;4.87;;;4.30;;
3036;SDS011;1528;52.550;13.408;2023-07-28T01:07:33;4.97;;;4.67;;
3036;SDS011;1528;52.550;13.408;2023-07-28T01:10:24;5.40;;;5.10;;
3036;SDS011;1528;52.550;13.408;2023-07-28T01:13:15;4.83;;;4.43;;
3036;SDS011;1528;52.550;13.408;2023-07-28T01:16:00;4.50;;;4.20;;
3036;SDS011;1528;52.550;13.408;2023-07-28T01:18:46;4.63;;;4.33;;
3036;SDS011;1528;52.550;13.408;2023-07-28T01:21:32;4.20;;;4.00;;
3036;SDS011;1528;52.550;13.408;2023-07-28T01:24:20;4.20;;;4.00;;
3036;SDS011;1528;52.550;13.408;2023-07-28T01:27:14;4.73;;;4.27;;
3036;SDS011;1528;52.550;13.408;2023-07-28T01:30:00;4.37;;;4.10;;
3036;SDS011;1528;52.550;13.408;2023-07-28T01:32:45;4.50;;;4.20;;
3036;SDS011;1528;52.550;13.408;2023-07-28T01:35:32;5.20;;;4.70;;
3036;SDS011;1528;52.550;13.408;2023-07-28T01:38:18;6.20;;;5.10;;
3036;SDS011;1528;52.550;13.408;2023-07-28T01:41:03;4.83;;;4.53;;
3036;SDS011;1528;52.550;13.408;2023-07-28T01:43:50;5.00;;;4.60;;
3036;SDS011;1528;52.550;13.408;2023-07-28T01:46:39;4.70;;;4.40;;
3036;SDS011;1528;52.550;13.408;2023-07-28T01:49:25;4.30;;;4.10;;
3036;SDS011;1528;52.550;13.408;2023-07-28T01:52:10;4.50;;;4.20;;
3036;SDS011;1528;52.550;13.408;2023-07-28T01:54:56;4.47;;;4.07;;
3036;SDS011;1528;52.550;13.408;2023-07-28T01:57:49;4.67;;;4.47;;
3036;SDS011;1528;52.550;13.408;2023-07-28T02:00:41;4.50;;;4.20;;
3036;SDS011;1528;52.550;13.408;2023-07-28T02:03:27;4.67;;;4.47;;
3036;SDS011;1528;52.550;13.408;2023-07-28T02:06:12;4.90;;;4.60;;
3036;SDS011;1528;52.550;13.408;2023-07-28T02:08:57;4.90;;;4.60;;
3036;SDS011;1528;52.550;13.408;2023-07-28T02:11:43;5.30;;;4.83;;
3036;SDS011;1528;52.550;13.408;2023-07-28T02:14:29;5.70;;;5.20;;
3036;SDS011;1528;52.550;13.408;2023-07-28T02:17:16;5.87;;;5.37;;
3036;SDS011;1528;52.550;13.408;2023-07-28T02:20:01;6.27;;;5.67;;
3036;SDS011;1528;52.550;13.408;2023-07-28T02:22:47;5.43;;;5.03;;
3036;SDS011;1528;52.550;13.408;2023-07-28T02:25:33;5.97;;;5.50;;
3036;SDS011;1528;52.550;13.408;2023-07-28T02:28:18;6.10;;;5.50;;
3036;SDS011;1528;52.550;13.408;2023-07-28T02:31:04;6.30;;;5.90;;
3036;SDS011;1528;52.550;13.408;2023-07-28T02:33:51;7.13;;;6.63;;
3036;SDS011;1528;52.550;13.408;2023-07-28T02:36:36;6.90;;;6.27;;
3036;SDS011;1528;52.550;13.408;2023-07-28T02:39:22;7.17;;;6.57;;
3036;SDS011;1528;52.550;13.408;2023-07-28T02:42:08;6.57;;;6.07;;
3036;SDS011;1528;52.550;13.408;2023-07-28T02:44:53;6.13;;;5.63;;
3036;SDS011;1528;52.550;13.408;2023-07-28T02:47:39;6.87;;;6.27;;
3036;SDS011;1528;52.550;13.408;2023-07-28T02:50:26;6.47;;;6.00;;
3036;SDS011;1528;52.550;13.408;2023-07-28T02:53:12;6.20;;;5.80;;
3036;SDS011;1528;52.550;13.408;2023-07-28T02:55:58;7.40;;;6.90;;
3036;SDS011;1528;52.550;13.408;2023-07-28T02:58:44;6.70;;;6.10;;
3036;SDS011;1528;52.550;13.408;2023-07-28T03:01:29;7.17;;;6.67;;
3036;SDS011;1528;52.550;13.408;2023-07-28T03:04:16;6.70;;;6.20;;
3036;SDS011;1528;52.550;13.408;2023-07-28T03:07:04;6.80;;;6.30;;
3036;SDS011;1528;52.550;13.408;2023-07-28T03:09:50;7.60;;;6.87;;
3036;SDS011;1528;52.550;13.408;2023-07-28T03:12:35;8.40;;;7.60;;
3036;SDS011;1528;52.550;13.408;2023-07-28T03:15:21;7.00;;;6.40;;
3036;SDS011;1528;52.550;13.408;2023-07-28T03:18:07;7.83;;;7.23;;
3036;SDS011;1528;52.550;13.408;2023-07-28T03:20:52;8.80;;;8.10;;
3036;SDS011;1528;52.550;13.408;2023-07-28T03:23:40;8.13;;;7.43;;
3036;SDS011;1528;52.550;13.408;2023-07-28T03:26:25;7.40;;;6.83;;
3036;SDS011;1528;52.550;13.408;2023-07-28T03:29:10;8.40;;;7.77;;
3036;SDS011;1528;52.550;13.408;2023-07-28T03:31:56;7.00;;;6.50;;
3036;SDS011;1528;52.550;13.408;2023-07-28T03:34:42;7.67;;;6.90;;
3036;SDS011;1528;52.550;13.408;2023-07-28T03:37:27;7.63;;;6.93;;
3036;SDS011;1528;52.550;13.408;2023-07-28T03:40:14;7.33;;;6.60;;
3036;SDS011;1528;52.550;13.408;2023-07-28T03:43:00;7.30;;;6.80;;
3036;SDS011;1528;52.550;13.408;2023-07-28T03:45:46;7.60;;;7.10;;
3036;SDS011;1528;52.550;13.408;2023-07-28T03:48:31;7.83;;;7.13;;
3036;SDS011;1528;52.550;13.408;2023-07-28T03:51:17;8.90;;;8.20;;
3036;SDS011;1528;52.550;13.408;2023-07-28T03:54:03;9.67;;;7.73;;
3036;SDS011;1528;52.550;13.408;2023-07-28T03:56:50;7.87;;;7.27;;
3036;SDS011;1528;52.550;13.408;2023-07-28T03:59:36;8.43;;;7.83;;
3036;SDS011;1528;52.550;13.408;2023-07-28T04:02:22;8.70;;;7.80;;
3036;SDS011;1528;52.550;13.408;2023-07-28T04:05:08;8.40;;;7.70;;
3036;SDS011;1528;52.550;13.408;2023-07-28T04:07:54;9.30;;;8.50;;
3036;SDS011;1528;52.550;13.408;2023-07-28T04:10:39;8.17;;;7.50;;
3036;SDS011;1528;52.550;13.408;2023-07-28T04:13:26;8.90;;;8.20;;
3036;SDS011;1528;52.550;13.408;2023-07-28T04:16:12;7.87;;;7.17;;
3036;SDS011;1528;52.550;13.408;2023-07-28T04:18:57;7.80;;;7.20;;
3036;SDS011;1528;52.550;13.408;2023-07-28T04:21:43;8.50;;;7.83;;
3036;SDS011;1528;52.550;13.408;2023-07-28T04:24:29;8.00;;;7.30;;
3036;SDS011;1528;52.550;13.408;2023-07-28T04:27:15;7.87;;;6.90;;
3036;SDS011;1528;52.550;13.408;2023-07-28T04:30:02;7.77;;;6.90;;
3036;SDS011;1528;52.550;13.408;2023-07-28T04:32:48;7.43;;;6.93;;
3036;SDS011;1528;52.550;13.408;2023-07-28T04:35:34;7.50;;;6.57;;
3036;SDS011;1528;52.550;13.408;2023-07-28T04:38:19;8.10;;;7.40;;
3036;SDS011;1528;52.550;13.408;2023-07-28T04:41:05;7.50;;;6.90;;
3036;SDS011;1528;52.550;13.408;2023-07-28T04:43:50;7.90;;;7.20;;
3036;SDS011;1528;52.550;13.408;2023-07-28T04:46:37;8.80;;;8.00;;
3036;SDS011;1528;52.550;13.408;2023-07-28T04:49:23;7.93;;;7.33;;
3036;SDS011;1528;52.550;13.408;2023-07-28T04:52:08;7.97;;;7.47;;
3036;SDS011;1528;52.550;13.408;2023-07-28T04:54:54;8.67;;;8.07;;
3036;SDS011;1528;52.550;13.408;2023-07-28T04:57:40;9.03;;;8.43;;
3036;SDS011;1528;52.550;13.408;2023-07-28T05:00:26;9.07;;;8.30;;
3036;SDS011;1528;52.550;13.408;2023-07-28T05:03:13;9.37;;;8.40;;
3036;SDS011;1528;52.550;13.408;2023-07-28T05:05:58;9.70;;;8.80;;
3036;SDS011;1528;52.550;13.408;2023-07-28T05:08:44;9.10;;;8.20;;
3036;SDS011;1528;52.550;13.408;2023-07-28T05:11:29;8.47;;;7.87;;
3036;SDS011;1528;52.550;13.408;2023-07-28T05:14:15;8.97;;;8.33;;
3036;SDS011;1528;52.550;13.408;2023-07-28T05:17:01;9.13;;;8.47;;
3036;SDS011;1528;52.550;13.408;2023-07-28T05:19:49;8.57;;;7.97;;
3036;SDS011;1528;52.550;13.408;2023-07-28T05:22:34;8.07;;;7.47;;
3036;SDS011;1528;52.550;13.408;2023-07-28T05:25:20;9.00;;;8.40;;
3036;SDS011;1528;52.550;13.408;2023-07-28T05:28:06;8.80;;;8.10;;
3036;SDS011;1528;52.550;13.408;2023-07-28T05:30:51;9.87;;;9.07;;
3036;SDS011;1528;52.550;13.408;2023-07-28T05:33:38;9.70;;;9.00;;
3036;SDS011;1528;52.550;13.408;2023-07-28T05:36:25;9.13;;;8.43;;
3036;SDS011;1528;52.550;13.408;2023-07-28T05:39:12;10.07;;;9.20;;
3036;SDS011;1528;52.550;13.408;2023-07-28T05:41:57;10.57;;;9.37;;
3036;SDS011;1528;52.550;13.408;2023-07-28T05:44:43;8.80;;;8.10;;
3036;SDS011;1528;52.550;13.408;2023-07-28T05:47:29;9.23;;;8.63;;
3036;SDS011;1528;52.550;13.408;2023-07-28T05:50:14;10.00;;;9.30;;
3036;SDS011;1528;52.550;13.408;2023-07-28T05:53:01;10.60;;;9.60;;
3036;SDS011;1528;52.550;13.408;2023-07-28T05:55:48;23.43;;;12.00;;
3036;SDS011;1528;52.550;13.408;2023-07-28T05:58:33;8.07;;;7.37;;
3036;SDS011;1528;52.550;13.408;2023-07-28T06:01:19;9.63;;;8.90;;
3036;SDS011;1528;52.550;13.408;2023-07-28T06:04:05;10.13;;;9.17;;
3036;SDS011;1528;52.550;13.408;2023-07-28T06:06:50;7.70;;;7.10;;
3036;SDS011;1528;52.550;13.408;2023-07-28T06:09:37;8.97;;;8.37;;
3036;SDS011;1528;52.550;13.408;2023-07-28T06:12:23;9.60;;;8.90;;
3036;SDS011;1528;52.550;13.408;2023-07-28T06:15:09;8.83;;;8.33;;
3036;SDS011;1528;52.550;13.408;2023-07-28T06:17:54;9.27;;;8.67;;
3036;SDS011;1528;52.550;13.408;2023-07-28T06:20:41;10.47;;;8.93;;
3036;SDS011;1528;52.550;13.408;2023-07-28T06:23:27;8.70;;;8.10;;
3036;SDS011;1528;52.550;13.408;2023-07-28T06:26:14;9.03;;;8.43;;
3036;SDS011;1528;52.550;13.408;2023-07-28T06:29:00;13.10;;;8.43;;
3036;SDS011;1528;52.550;13.408;2023-07-28T06:31:46;9.00;;;8.20;;
3036;SDS011;1528;52.550;13.408;2023-07-28T06:34:31;8.10;;;7.60;;
3036;SDS011;1528;52.550;13.408;2023-07-28T06:37:17;7.90;;;7.33;;
3036;SDS011;1528;52.550;13.408;2023-07-28T06:40:03;7.50;;;7.00;;
3036;SDS011;1528;52.550;13.408;2023-07-28T06:42:52;8.93;;;8.20;;
3036;SDS011;1528;52.550;13.408;2023-07-28T06:45:38;9.60;;;8.60;;
3036;SDS011;1528;52.550;13.408;2023-07-28T06:48:23;9.10;;;8.00;;
3036;SDS011;1528;52.550;13.408;2023-07-28T06:51:09;9.10;;;8.50;;
3036;SDS011;1528;52.550;13.408;2023-07-28T06:53:55;7.93;;;7.43;;
3036;SDS011;1528;52.550;13.408;2023-07-28T06:56:40;7.03;;;6.63;;
3036;SDS011;1528;52.550;13.408;2023-07-28T06:59:27;9.70;;;7.53;;
3036;SDS011;1528;52.550;13.408;2023-07-28T07:02:13;10.90;;;8.23;;
3036;SDS011;1528;52.550;13.408;2023-07-28T07:04:59;7.73;;;7.13;;
3036;SDS011;1528;52.550;13.408;2023-07-28T07:07:44;8.23;;;7.50;;
3036;SDS011;1528;52.550;13.408;2023-07-28T07:10:30;7.50;;;7.00;;
3036;SDS011;1528;52.550;13.408;2023-07-28T07:13:16;6.67;;;6.27;;
3036;SDS011;1528;52.550;13.408;2023-07-28T07:16:04;6.57;;;6.17;;
3036;SDS011;1528;52.550;13.408;2023-07-28T07:18:50;6.70;;;6.30;;
3036;SDS011;1528;52.550;13.408;2023-07-28T07:21:37;6.77;;;6.37;;
3036;SDS011;1528;52.550;13.408;2023-07-28T07:24:22;6.80;;;6.30;;
3036;SDS011;1528;52.550;13.408;2023-07-28T07:27:08;6.50;;;6.10;;
3036;SDS011;1528;52.550;13.408;2023-07-28T07:29:54;6.13;;;5.73;;
3036;SDS011;1528;52.550;13.408;2023-07-28T07:32:41;7.10;;;6.40;;
3036;SDS011;1528;52.550;13.408;2023-07-28T07:35:27;6.80;;;6.00;;
3036;SDS011;1528;52.550;13.408;2023-07-28T07:38:12;6.93;;;5.87;;
3036;SDS011;1528;52.550;13.408;2023-07-28T07:40:58;5.53;;;5.13;;
3036;SDS011;1528;52.550;13.408;2023-07-28T07:43:45;6.00;;;5.60;;
3036;SDS011;1528;52.550;13.408;2023-07-28T07:46:31;6.50;;;6.00;;
3036;SDS011;1528;52.550;13.408;2023-07-28T07:49:18;5.83;;;5.43;;
3036;SDS011;1528;52.550;13.408;2023-07-28T07:52:04;4.90;;;4.57;;
3036;SDS011;1528;52.550;13.408;2023-07-28T07:54:51;5.13;;;4.83;;
3036;SDS011;1528;52.550;13.408;2023-07-28T07:57:37;5.17;;;4.70;;
3036;SDS011;1528;52.550;13.408;2023-07-28T08:00:22;4.63;;;4.33;;
3036;SDS011;1528;52.550;13.408;2023-07-28T08:03:08;4.30;;;3.70;;
3036;SDS011;1528;52.550;13.408;2023-07-28T08:05:55;4.37;;;3.97;;
3036;SDS011;1528;52.550;13.408;2023-07-28T08:08:41;4.40;;;4.10;;
3036;SDS011;1528;52.550;13.408;2023-07-28T08:11:27;5.53;;;4.00;;
3036;SDS011;1528;52.550;13.408;2023-07-28T08:14:13;4.60;;;4.30;;
3036;SDS011;1528;52.550;13.408;2023-07-28T08:16:59;4.23;;;4.03;;
3036;SDS011;1528;52.550;13.408;2023-07-28T08:19:45;3.73;;;3.53;;
3036;SDS011;1528;52.550;13.408;2023-07-28T08:22:32;4.93;;;4.53;;
3036;SDS011;1528;52.550;13.408;2023-07-28T08:25:17;6.60;;;6.10;;
3036;SDS011;1528;52.550;13.408;2023-07-28T08:28:03;5.00;;;4.70;;
3036;SDS011;1528;52.550;13.408;2023-07-28T08:30:53;4.00;;;3.80;;
3036;SDS011;1528;52.550;13.408;2023-07-28T08:33:40;4.20;;;3.90;;
3036;SDS011;1528;52.550;13.408;2023-07-28T08:36:26;4.80;;;4.40;;
3036;SDS011;1528;52.550;13.408;2023-07-28T08:39:13;5.23;;;4.93;;
3036;SDS011;1528;52.550;13.408;2023-07-28T08:41:59;3.63;;;3.43;;
3036;SDS011;1528;52.550;13.408;2023-07-28T08:44:46;4.10;;;3.20;;
3036;SDS011;1528;52.550;13.408;2023-07-28T08:47:32;3.57;;;3.37;;
3036;SDS011;1528;52.550;13.408;2023-07-28T08:50:17;3.83;;;3.60;;
3036;SDS011;1528;52.550;13.408;2023-07-28T08:53:03;2.90;;;2.80;;
3036;SDS011;1528;52.550;13.408;2023-07-28T08:55:50;4.83;;;4.53;;
3036;SDS011;1528;52.550;13.408;2023-07-28T08:58:36;4.10;;;3.80;;
3036;SDS011;1528;52.550;13.408;2023-07-28T09:01:22;3.93;;;3.73;;
3036;SDS011;1528;52.550;13.408;2023-07-28T09:04:09;3.80;;;3.50;;
3036;SDS011;1528;52.550;13.408;2023-07-28T09:06:55;3.63;;;3.10;;
3036;SDS011;1528;52.550;13.408;2023-07-28T09:09:41;3.70;;;3.50;;
3036;SDS011;1528;52.550;13.408;2023-07-28T09:12:28;4.03;;;3.40;;
3036;SDS011;1528;52.550;13.408;2023-07-28T09:15:16;4.17;;;3.40;;
3036;SDS011;1528;52.550;13.408;2023-07-28T09:18:02;3.20;;;3.00;;
3036;SDS011;1528;52.550;13.408;2023-07-28T09:20:48;3.93;;;3.73;;
3036;SDS011;1528;52.550;13.408;2023-07-28T09:23:34;3.43;;;3.13;;
3036;SDS011;1528;52.550;13.408;2023-07-28T09:26:21;3.77;;;3.57;;
3036;SDS011;1528;52.550;13.408;2023-07-28T09:29:14;3.57;;;3.30;;
3036;SDS011;1528;52.550;13.408;2023-07-28T09:32:02;5.20;;;4.80;;
3036;SDS011;1528;52.550;13.408;2023-07-28T09:34:49;4.00;;;3.80;;
3036;SDS011;1528;52.550;13.408;2023-07-28T09:37:50;4.23;;;3.93;;
3036;SDS011;1528;52.550;13.408;2023-07-28T09:40:38;4.37;;;4.13;;
3036;SDS011;1528;52.550;13.408;2023-07-28T09:43:25;4.37;;;4.17;;
3036;SDS011;1528;52.550;13.408;2023-07-28T09:46:12;3.97;;;3.67;;
3036;SDS011;1528;52.550;13.408;2023-07-28T09:49:03;4.73;;;4.33;;
3036;SDS011;1528;52.550;13.408;2023-07-28T09:51:51;5.17;;;4.80;;
3036;SDS011;1528;52.550;13.408;2023-07-28T09:54:40;4.40;;;4.10;;
3036;SDS011;1528;52.550;13.408;2023-07-28T09:57:26;4.70;;;4.40;;
3036;SDS011;1528;52.550;13.408;2023-07-28T10:00:13;4.23;;;3.80;;
3036;SDS011;1528;52.550;13.408;2023-07-28T10:03:01;3.80;;;3.60;;
3036;SDS011;1528;52.550;13.408;2023-07-28T10:05:47;4.60;;;4.20;;
3036;SDS011;1528;52.550;13.408;2023-07-28T10:08:33;4.33;;;4.03;;
3036;SDS011;1528;52.550;13.408;2023-07-28T10:11:20;4.80;;;4.60;;
3036;SDS011;1528;52.550;13.408;2023-07-28T10:14:07;4.30;;;4.00;;
3036;SDS011;1528;52.550;13.408;2023-07-28T10:16:54;4.33;;;4.13;;
3036;SDS011;1528;52.550;13.408;2023-07-28T10:19:42;4.30;;;4.10;;
3036;SDS011;1528;52.550;13.408;2023-07-28T10:22:27;6.27;;;5.87;;
3036;SDS011;1528;52.550;13.408;2023-07-28T10:25:13;5.00;;;4.70;;
3036;SDS011;1528;52.550;13.408;2023-07-28T10:28:08;5.60;;;5.10;;
3036;SDS011;1528;52.550;13.408;2023-07-28T10:31:11;5.07;;;4.77;;
3036;SDS011;1528;52.550;13.408;2023-07-28T10:33:56;4.70;;;4.50;;
3036;SDS011;1528;52.550;13.408;2023-07-28T10:36:44;4.17;;;3.97;;
3036;SDS011;1528;52.550;13.408;2023-07-28T10:39:30;5.47;;;5.17;;
3036;SDS011;1528;52.550;13.408;2023-07-28T10:42:19;4.30;;;4.00;;
3036;SDS011;1528;52.550;13.408;2023-07-28T10:45:07;4.77;;;4.47;;
3036;SDS011;1528;52.550;13.408;2023-07-28T10:47:57;4.47;;;4.17;;
3036;SDS011;1528;52.550;13.408;2023-07-28T10:50:43;4.93;;;4.57;;
3036;SDS011;1528;52.550;13.408;2023-07-28T10:53:31;5.10;;;4.80;;
3036;SDS011;1528;52.550;13.408;2023-07-28T10:56:18;5.10;;;4.80;;
3036;SDS011;1528;52.550;13.408;2023-07-28T10:59:04;4.60;;;4.40;;
3036;SDS011;1528;52.550;13.408;2023-07-28T11:01:49;3.93;;;3.73;;
3036;SDS011;1528;52.550;13.408;2023-07-28T11:04:36;4.03;;;3.83;;
3036;SDS011;1528;52.550;13.408;2023-07-28T11:07:22;3.40;;;3.20;;
3036;SDS011;1528;52.550;13.408;2023-07-28T11:10:10;4.03;;;3.83;;
3036;SDS011;1528;52.550;13.408;2023-07-28T11:12:57;3.60;;;3.40;;
3036;SDS011;1528;52.550;13.408;2023-07-28T11:15:43;3.87;;;3.63;;
3036;SDS011;1528;52.550;13.408;2023-07-28T11:18:29;3.83;;;3.63;;
3036;SDS011;1528;52.550;13.408;2023-07-28T11:21:16;3.60;;;3.40;;
3036;SDS011;1528;52.550;13.408;2023-07-28T11:24:02;3.37;;;3.10;;
3036;SDS011;1528;52.550;13.408;2023-07-28T11:26:50;4.33;;;4.13;;
3036;SDS011;1528;52.550;13.408;2023-07-28T11:29:36;4.00;;;3.70;;
3036;SDS011;1528;52.550;13.408;2023-07-28T11:32:21;4.90;;;4.13;;
3036;SDS011;1528;52.550;13.408;2023-07-28T11:35:07;4.20;;;4.00;;
3036;SDS011;1528;52.550;13.408;2023-07-28T11:37:55;5.20;;;4.70;;
3036;SDS011;1528;52.550;13.408;2023-07-28T11:40:42;4.70;;;4.50;;
3036;SDS011;1528;52.550;13.408;2023-07-28T11:43:29;4.30;;;4.10;;
3036;SDS011;1528;52.550;13.408;2023-07-28T11:46:34;4.50;;;4.30;;
3036;SDS011;1528;52.550;13.408;2023-07-28T11:49:20;6.00;;;5.67;;
3036;SDS011;1528;52.550;13.408;2023-07-28T11:52:06;4.20;;;4.00;;
3036;SDS011;1528;52.550;13.408;2023-07-28T11:54:52;3.90;;;3.70;;
3036;SDS011;1528;52.550;13.408;2023-07-28T11:57:38;3.80;;;3.60;;
3036;SDS011;1528;52.550;13.408;2023-07-28T12:00:31;4.30;;;4.10;;
3036;SDS011;1528;52.550;13.408;2023-07-28T12:03:19;4.20;;;4.00;;
3036;SDS011;1528;52.550;13.408;2023-07-28T12:06:05;4.53;;;4.33;;
3036;SDS011;1528;52.550;13.408;2023-07-28T12:09:03;3.80;;;3.60;;
3036;SDS011;1528;52.550;13.408;2023-07-28T12:11:49;4.63;;;4.33;;
3036;SDS011;1528;52.550;13.408;2023-07-28T12:14:35;4.63;;;4.33;;
3036;SDS011;1528;52.550;13.408;2023-07-28T12:17:25;4.20;;;4.00;;
3036;SDS011;1528;52.550;13.408;2023-07-28T12:20:12;3.90;;;3.60;;
3036;SDS011;1528;52.550;13.408;2023-07-28T12:22:58;3.90;;;3.70;;
3036;SDS011;1528;52.550;13.408;2023-07-28T12:25:44;4.00;;;3.77;;
3036;SDS011;1528;52.550;13.408;2023-07-28T12:28:30;3.60;;;3.40;;
3036;SDS011;1528;52.550;13.408;2023-07-28T12:31:16;4.30;;;3.90;;
3036;SDS011;1528;52.550;13.408;2023-07-28T12:34:03;3.43;;;3.13;;
3036;SDS011;1528;52.550;13.408;2023-07-28T12:36:48;3.63;;;3.43;;
3036;SDS011;1528;52.550;13.408;2023-07-28T12:39:36;3.40;;;3.20;;
3036;SDS011;1528;52.550;13.408;2023-07-28T12:42:23;4.00;;;3.70;;
3036;SDS011;1528;52.550;13.408;2023-07-28T12:45:09;4.13;;;3.93;;
3036;SDS011;1528;52.550;13.408;2023-07-28T12:47:55;3.60;;;3.40;;
3036;SDS011;1528;52.550;13.408;2023-07-28T12:50:42;4.40;;;4.20;;
3036;SDS011;1528;52.550;13.408;2023-07-28T12:53:28;4.00;;;3.80;;
3036;SDS011;1528;52.550;13.408;2023-07-28T12:56:15;4.90;;;4.50;;
3036;SDS011;1528;52.550;13.408;2023-07-28T12:59:00;3.83;;;3.53;;
3036;SDS011;1528;52.550;13.408;2023-07-28T13:01:46;3.47;;;3.27;;
3036;SDS011;1528;52.550;13.408;2023-07-28T13:04:32;4.17;;;3.90;;
3036;SDS011;1528;52.550;13.408;2023-07-28T13:07:19;4.37;;;4.07;;
3036;SDS011;1528;52.550;13.408;2023-07-28T13:10:06;5.20;;;4.20;;
3036;SDS011;1528;52.550;13.408;2023-07-28T13:12:53;4.60;;;4.40;;
3036;SDS011;1528;52.550;13.408;2023-07-28T13:15:39;4.30;;;4.00;;
3036;SDS011;1528;52.550;13.408;2023-07-28T13:18:24;4.23;;;4.00;;
3036;SDS011;1528;52.550;13.408;2023-07-28T13:21:10;6.73;;;6.33;;
3036;SDS011;1528;52.550;13.408;2023-07-28T13:23:57;3.87;;;3.67;;
3036;SDS011;1528;52.550;13.408;2023-07-28T13:26:43;5.73;;;4.70;;
3036;SDS011;1528;52.550;13.408;2023-07-28T13:29:28;5.00;;;4.60;;
3036;SDS011;1528;52.550;13.408;2023-07-28T13:32:17;4.57;;;4.30;;
3036;SDS011;1528;52.550;13.408;2023-07-28T13:35:07;4.33;;;4.13;;
3036;SDS011;1528;52.550;13.408;2023-07-28T13:37:53;5.20;;;4.90;;
3036;SDS011;1528;52.550;13.408;2023-07-28T13:40:40;4.30;;;4.10;;
3036;SDS011;1528;52.550;13.408;2023-07-28T13:43:25;4.67;;;4.37;;
3036;SDS011;1528;52.550;13.408;2023-07-28T13:46:11;4.80;;;4.50;;
3036;SDS011;1528;52.550;13.408;2023-07-28T13:48:56;4.33;;;4.13;;
3036;SDS011;1528;52.550;13.408;2023-07-28T13:51:42;4.40;;;4.17;;
3036;SDS011;1528;52.550;13.408;2023-07-28T13:54:28;3.80;;;3.60;;
3036;SDS011;1528;52.550;13.408;2023-07-28T13:57:15;4.07;;;3.83;;
3036;SDS011;1528;52.550;13.408;2023-07-28T14:00:00;4.40;;;4.20;;
3036;SDS011;1528;52.550;13.408;2023-07-28T14:02:46;4.20;;;3.90;;
3036;SDS011;1528;52.550;13.408;2023-07-28T14:05:32;4.10;;;3.67;;
3036;SDS011;1528;52.550;13.408;2023-07-28T14:08:17;4.67;;;4.47;;
3036;SDS011;1528;52.550;13.408;2023-07-28T14:11:03;4.53;;;4.20;;
3036;SDS011;1528;52.550;13.408;2023-07-28T14:13:50;4.23;;;4.03;;
3036;SDS011;1528;52.550;13.408;2023-07-28T14:16:35;4.07;;;3.63;;
3036;SDS011;1528;52.550;13.408;2023-07-28T14:19:21;4.03;;;3.83;;
3036;SDS011;1528;52.550;13.408;2023-07-28T14:22:06;3.23;;;3.10;;
3036;SDS011;1528;52.550;13.408;2023-07-28T14:24:52;3.90;;;3.70;;
3036;SDS011;1528;52.550;13.408;2023-07-28T14:27:38;8.73;;;8.03;;
3036;SDS011;1528;52.550;13.408;2023-07-28T14:30:25;3.73;;;3.63;;
3036;SDS011;1528;52.550;13.408;2023-07-28T14:33:10;3.80;;;3.60;;
3036;SDS011;1528;52.550;13.408;2023-07-28T14:35:56;5.63;;;5.33;;
3036;SDS011;1528;52.550;13.408;2023-07-28T14:38:41;4.57;;;4.33;;
3036;SDS011;1528;52.550;13.408;2023-07-28T14:41:27;6.70;;;6.30;;
3036;SDS011;1528;52.550;13.408;2023-07-28T14:44:12;7.77;;;7.27;;
3036;SDS011;1528;52.550;13.408;2023-07-28T14:47:01;5.87;;;5.47;;
3036;SDS011;1528;52.550;13.408;2023-07-28T14:49:47;4.43;;;4.03;;
3036;SDS011;1528;52.550;13.408;2023-07-28T14:52:32;4.13;;;3.93;;
3036;SDS011;1528;52.550;13.408;2023-07-28T14:55:18;4.57;;;4.37;;
3036;SDS011;1528;52.550;13.408;2023-07-28T14:58:04;4.00;;;3.80;;
3036;SDS011;1528;52.550;13.408;2023-07-28T15:00:49;4.43;;;4.23;;
3036;SDS011;1528;52.550;13.408;2023-07-28T15:03:36;5.17;;;4.83;;
3036;SDS011;1528;52.550;13.408;2023-07-28T15:06:22;4.57;;;4.37;;
3036;SDS011;1528;52.550;13.408;2023-07-28T15:09:07;4.73;;;4.53;;
3036;SDS011;1528;52.550;13.408;2023-07-28T15:11:53;9.10;;;8.40;;
3036;SDS011;1528;52.550;13.408;2023-07-28T15:14:38;4.57;;;4.37;;
3036;SDS011;1528;52.550;13.408;2023-07-28T15:17:24;5.27;;;5.07;;
3036;SDS011;1528;52.550;13.408;2023-07-28T15:20:11;4.93;;;4.63;;
3036;SDS011;1528;52.550;13.408;2023-07-28T15:22:57;6.13;;;5.83;;
3036;SDS011;1528;52.550;13.408;2023-07-28T15:25:42;4.40;;;4.20;;
3036;SDS011;1528;52.550;13.408;2023-07-28T15:28:29;3.50;;;3.30;;
3036;SDS011;1528;52.550;13.408;2023-07-28T15:31:14;3.90;;;3.70;;
3036;SDS011;1528;52.550;13.408;2023-07-28T15:34:00;3.47;;;3.33;;
3036;SDS011;1528;52.550;13.408;2023-07-28T15:36:47;3.23;;;3.13;;
3036;SDS011;1528;52.550;13.408;2023-07-28T15:39:33;3.23;;;3.13;;
3036;SDS011;1528;52.550;13.408;2023-07-28T15:42:21;3.30;;;3.10;;
3036;SDS011;1528;52.550;13.408;2023-07-28T15:45:08;3.73;;;3.50;;
3036;SDS011;1528;52.550;13.408;2023-07-28T15:47:54;4.33;;;4.03;;
3036;SDS011;1528;52.550;13.408;2023-07-28T15:50:40;5.00;;;4.70;;
3036;SDS011;1528;52.550;13.408;2023-07-28T15:53:27;3.73;;;3.53;;
3036;SDS011;1528;52.550;13.408;2023-07-28T15:56:13;3.53;;;3.43;;
3036;SDS011;1528;52.550;13.408;2023-07-28T15:58:58;3.90;;;3.70;;
3036;SDS011;1528;52.550;13.408;2023-07-28T16:01:44;4.27;;;4.07;;
3036;SDS011;1528;52.550;13.408;2023-07-28T16:04:30;4.27;;;3.83;;
3036;SDS011;1528;52.550;13.408;2023-07-28T16:07:15;4.40;;;4.10;;
3036;SDS011;1528;52.550;13.408;2023-07-28T16:10:02;4.80;;;4.50;;
3036;SDS011;1528;52.550;13.408;2023-07-28T16:12:48;3.80;;;3.60;;
3036;SDS011;1528;52.550;13.408;2023-07-28T16:15:34;3.90;;;3.70;;
3036;SDS011;1528;52.550;13.408;2023-07-28T16:18:20;4.10;;;3.80;;
3036;SDS011;1528;52.550;13.408;2023-07-28T16:21:05;4.40;;;4.20;;
3036;SDS011;1528;52.550;13.408;2023-07-28T16:23:51;4.83;;;4.53;;
3036;SDS011;1528;52.550;13.408;2023-07-28T16:26:39;5.53;;;5.17;;
3036;SDS011;1528;52.550;13.408;2023-07-28T16:29:24;4.70;;;4.43;;
3036;SDS011;1528;52.550;13.408;2023-07-28T16:32:10;4.40;;;4.20;;
3036;SDS011;1528;52.550;13.408;2023-07-28T16:34:56;4.57;;;4.27;;
3036;SDS011;1528;52.550;13.408;2023-07-28T16:37:42;4.97;;;4.57;;
3036;SDS011;1528;52.550;13.408;2023-07-28T16:40:28;4.00;;;3.80;;
3036;SDS011;1528;52.550;13.408;2023-07-28T16:43:15;5.20;;;4.70;;
3036;SDS011;1528;52.550;13.408;2023-07-28T16:46:01;4.90;;;4.60;;
3036;SDS011;1528;52.550;13.408;2023-07-28T16:48:47;4.40;;;4.10;;
3036;SDS011;1528;52.550;13.408;2023-07-28T16:51:32;3.90;;;3.60;;
3036;SDS011;1528;52.550;13.408;2023-07-28T16:54:18;5.00;;;4.70;;
3036;SDS011;1528;52.550;13.408;2023-07-28T16:57:04;6.07;;;5.10;;